sensor_id;sensor_type;location;lat;lon;timestamp;P1;durP1;ratioP1;P2;durP2;ratioP2
25758;SDS011;13604;52.496;13.456;2023-02-12T00:00:57;31.23;;;11.77;;
25758;SDS011;13604;52.496;13.456;2023-02-12T00:03:22;32.08;;;11.20;;
25758;SDS011;13604;52.496;13.456;2023-02-12T00:05:47;32.28;;;10.75;;
25758;SDS011;13604;52.496;13.456;2023-02-12T00:08:13;28.67;;;10.13;;
25758;SDS011;13604;52.496;13.456;2023-02-12T00:10:40;32.53;;;11.23;;
25758;SDS011;13604;52.496;13.456;2023-02-12T00:13:07;30.60;;;10.55;;
25758;SDS011;13604;52.496;13.456;2023-02-12T00:15:33;31.65;;;10.98;;
25758;SDS011;13604;52.496;13.456;2023-02-12T00:17:58;28.70;;;10.93;;
25758;SDS011;13604;52.496;13.456;2023-02-12T00:20:24;40.63;;;11.70;;
25758;SDS011;13604;52.496;13.456;2023-02-12T00:22:49;32.30;;;11.18;;
25758;SDS011;13604;52.496;13.456;2023-02-12T00:25:14;31.58;;;9.98;;
25758;SDS011;13604;52.496;13.456;2023-02-12T00:27:41;36.30;;;10.70;;
25758;SDS011;13604;52.496;13.456;2023-02-12T00:30:06;32.47;;;9.43;;
25758;SDS011;13604;52.496;13.456;2023-02-12T00:32:31;31.27;;;9.25;;
25758;SDS011;13604;52.496;13.456;2023-02-12T00:34:57;23.73;;;9.27;;
25758;SDS011;13604;52.496;13.456;2023-02-12T00:37:22;25.63;;;8.73;;
25758;SDS011;13604;52.496;13.456;2023-02-12T00:39:47;30.63;;;9.25;;
25758;SDS011;13604;52.496;13.456;2023-02-12T00:42:12;37.35;;;9.40;;
25758;SDS011;13604;52.496;13.456;2023-02-12T00:44:38;42.30;;;10.48;;
25758;SDS011;13604;52.496;13.456;2023-02-12T00:47:04;34.90;;;10.30;;
25758;SDS011;13604;52.496;13.456;2023-02-12T00:49:29;37.45;;;10.35;;
25758;SDS011;13604;52.496;13.456;2023-02-12T00:52:02;31.85;;;9.85;;
25758;SDS011;13604;52.496;13.456;2023-02-12T00:54:28;35.13;;;10.35;;
25758;SDS011;13604;52.496;13.456;2023-02-12T00:56:55;34.72;;;11.15;;
25758;SDS011;13604;52.496;13.456;2023-02-12T00:59:23;37.92;;;10.95;;
25758;SDS011;13604;52.496;13.456;2023-02-12T01:01:49;39.33;;;10.90;;
25758;SDS011;13604;52.496;13.456;2023-02-12T01:04:16;44.97;;;11.57;;
25758;SDS011;13604;52.496;13.456;2023-02-12T01:06:42;39.83;;;11.45;;
25758;SDS011;13604;52.496;13.456;2023-02-12T01:09:07;44.47;;;10.68;;
25758;SDS011;13604;52.496;13.456;2023-02-12T01:11:33;35.42;;;9.98;;
25758;SDS011;13604;52.496;13.456;2023-02-12T01:13:58;34.28;;;11.27;;
25758;SDS011;13604;52.496;13.456;2023-02-12T01:16:24;40.83;;;11.68;;
25758;SDS011;13604;52.496;13.456;2023-02-12T01:18:50;29.60;;;9.50;;
25758;SDS011;13604;52.496;13.456;2023-02-12T01:21:18;30.83;;;9.93;;
25758;SDS011;13604;52.496;13.456;2023-02-12T01:23:45;28.02;;;9.30;;
25758;SDS011;13604;52.496;13.456;2023-02-12T01:26:11;41.03;;;10.75;;
25758;SDS011;13604;52.496;13.456;2023-02-12T01:28:37;26.70;;;9.25;;
25758;SDS011;13604;52.496;13.456;2023-02-12T01:31:08;32.20;;;10.75;;
25758;SDS011;13604;52.496;13.456;2023-02-12T01:33:38;32.63;;;9.40;;
25758;SDS011;13604;52.496;13.456;2023-02-12T01:36:03;30.40;;;10.15;;
25758;SDS011;13604;52.496;13.456;2023-02-12T01:38:29;36.25;;;10.63;;
25758;SDS011;13604;52.496;13.456;2023-02-12T01:41:04;27.85;;;8.32;;
25758;SDS011;13604;52.496;13.456;2023-02-12T01:43:34;37.28;;;9.75;;
25758;SDS011;13604;52.496;13.456;2023-02-12T01:46:01;33.28;;;9.50;;
25758;SDS011;13604;52.496;13.456;2023-02-12T01:48:28;38.63;;;9.75;;
25758;SDS011;13604;52.496;13.456;2023-02-12T01:50:57;38.30;;;9.57;;
25758;SDS011;13604;52.496;13.456;2023-02-12T01:53:24;32.42;;;9.25;;
25758;SDS011;13604;52.496;13.456;2023-02-12T01:55:56;32.50;;;9.55;;
25758;SDS011;13604;52.496;13.456;2023-02-12T01:58:23;26.15;;;9.55;;
25758;SDS011;13604;52.496;13.456;2023-02-12T02:00:51;27.65;;;9.93;;
25758;SDS011;13604;52.496;13.456;2023-02-12T02:03:16;35.92;;;8.38;;
25758;SDS011;13604;52.496;13.456;2023-02-12T02:05:46;24.90;;;8.60;;
25758;SDS011;13604;52.496;13.456;2023-02-12T02:08:17;32.38;;;9.05;;
25758;SDS011;13604;52.496;13.456;2023-02-12T02:10:42;28.10;;;7.80;;
25758;SDS011;13604;52.496;13.456;2023-02-12T02:13:08;31.70;;;9.93;;
25758;SDS011;13604;52.496;13.456;2023-02-12T02:16:01;32.72;;;7.88;;
25758;SDS011;13604;52.496;13.456;2023-02-12T02:18:40;34.42;;;9.43;;
25758;SDS011;13604;52.496;13.456;2023-02-12T02:21:24;31.38;;;10.35;;
25758;SDS011;13604;52.496;13.456;2023-02-12T02:24:25;46.85;;;9.98;;
25758;SDS011;13604;52.496;13.456;2023-02-12T02:27:06;39.50;;;9.25;;
25758;SDS011;13604;52.496;13.456;2023-02-12T02:32:22;28.33;;;8.55;;
25758;SDS011;13604;52.496;13.456;2023-02-12T02:34:56;28.02;;;7.55;;
25758;SDS011;13604;52.496;13.456;2023-02-12T02:37:40;37.60;;;7.85;;
25758;SDS011;13604;52.496;13.456;2023-02-12T02:45:27;33.75;;;8.75;;
25758;SDS011;13604;52.496;13.456;2023-02-12T02:47:59;29.77;;;8.20;;
25758;SDS011;13604;52.496;13.456;2023-02-12T02:50:29;40.83;;;10.35;;
25758;SDS011;13604;52.496;13.456;2023-02-12T02:53:03;31.48;;;10.20;;
25758;SDS011;13604;52.496;13.456;2023-02-12T02:55:36;24.67;;;7.90;;
25758;SDS011;13604;52.496;13.456;2023-02-12T03:00:46;29.77;;;7.03;;
25758;SDS011;13604;52.496;13.456;2023-02-12T03:03:21;29.58;;;7.38;;
25758;SDS011;13604;52.496;13.456;2023-02-12T03:05:53;27.33;;;7.10;;
25758;SDS011;13604;52.496;13.456;2023-02-12T03:08:25;29.25;;;8.18;;
25758;SDS011;13604;52.496;13.456;2023-02-12T03:11:06;38.00;;;8.55;;
25758;SDS011;13604;52.496;13.456;2023-02-12T03:13:48;34.08;;;8.02;;
25758;SDS011;13604;52.496;13.456;2023-02-12T03:16:22;35.10;;;8.55;;
25758;SDS011;13604;52.496;13.456;2023-02-12T03:18:54;35.38;;;9.02;;
25758;SDS011;13604;52.496;13.456;2023-02-12T03:21:28;44.20;;;10.48;;
25758;SDS011;13604;52.496;13.456;2023-02-12T03:24:00;40.53;;;10.13;;
25758;SDS011;13604;52.496;13.456;2023-02-12T03:29:18;38.08;;;9.25;;
25758;SDS011;13604;52.496;13.456;2023-02-12T03:31:51;37.45;;;9.57;;
25758;SDS011;13604;52.496;13.456;2023-02-12T03:34:52;37.33;;;9.20;;
25758;SDS011;13604;52.496;13.456;2023-02-12T03:37:30;29.67;;;8.20;;
25758;SDS011;13604;52.496;13.456;2023-02-12T03:40:02;37.05;;;8.82;;
25758;SDS011;13604;52.496;13.456;2023-02-12T03:43:05;26.35;;;8.18;;
25758;SDS011;13604;52.496;13.456;2023-02-12T03:45:48;41.80;;;9.07;;
25758;SDS011;13604;52.496;13.456;2023-02-12T03:48:28;35.15;;;8.75;;
25758;SDS011;13604;52.496;13.456;2023-02-12T03:53:58;37.35;;;8.32;;
25758;SDS011;13604;52.496;13.456;2023-02-12T03:56:27;43.13;;;9.25;;
25758;SDS011;13604;52.496;13.456;2023-02-12T03:58:57;38.53;;;10.45;;
25758;SDS011;13604;52.496;13.456;2023-02-12T04:01:22;40.70;;;9.05;;
25758;SDS011;13604;52.496;13.456;2023-02-12T04:03:48;31.52;;;8.43;;
25758;SDS011;13604;52.496;13.456;2023-02-12T04:06:18;36.55;;;9.00;;
25758;SDS011;13604;52.496;13.456;2023-02-12T04:08:47;36.38;;;8.90;;
25758;SDS011;13604;52.496;13.456;2023-02-12T04:14:03;33.05;;;8.80;;
25758;SDS011;13604;52.496;13.456;2023-02-12T04:16:53;36.70;;;9.82;;
25758;SDS011;13604;52.496;13.456;2023-02-12T04:28:12;33.25;;;8.70;;
25758;SDS011;13604;52.496;13.456;2023-02-12T04:30:53;33.47;;;9.27;;
25758;SDS011;13604;52.496;13.456;2023-02-12T04:33:23;42.30;;;9.93;;
25758;SDS011;13604;52.496;13.456;2023-02-12T04:36:02;43.83;;;9.07;;
25758;SDS011;13604;52.496;13.456;2023-02-12T04:38:37;31.35;;;7.72;;
25758;SDS011;13604;52.496;13.456;2023-02-12T04:41:05;35.40;;;8.23;;
25758;SDS011;13604;52.496;13.456;2023-02-12T04:43:33;35.75;;;8.75;;
25758;SDS011;13604;52.496;13.456;2023-02-12T04:46:00;36.83;;;7.80;;
25758;SDS011;13604;52.496;13.456;2023-02-12T04:48:26;33.72;;;8.48;;
25758;SDS011;13604;52.496;13.456;2023-02-12T04:50:51;30.98;;;8.77;;
25758;SDS011;13604;52.496;13.456;2023-02-12T04:53:17;25.60;;;7.53;;
25758;SDS011;13604;52.496;13.456;2023-02-12T04:55:42;31.60;;;8.40;;
25758;SDS011;13604;52.496;13.456;2023-02-12T04:58:08;36.53;;;8.82;;
25758;SDS011;13604;52.496;13.456;2023-02-12T05:00:33;36.72;;;7.82;;
25758;SDS011;13604;52.496;13.456;2023-02-12T05:02:59;29.42;;;7.60;;
25758;SDS011;13604;52.496;13.456;2023-02-12T05:05:24;40.08;;;9.20;;
25758;SDS011;13604;52.496;13.456;2023-02-12T05:07:49;31.17;;;9.48;;
25758;SDS011;13604;52.496;13.456;2023-02-12T05:10:15;42.17;;;10.80;;
25758;SDS011;13604;52.496;13.456;2023-02-12T05:12:40;33.45;;;8.88;;
25758;SDS011;13604;52.496;13.456;2023-02-12T05:15:06;35.47;;;8.43;;
25758;SDS011;13604;52.496;13.456;2023-02-12T05:17:31;36.13;;;8.52;;
25758;SDS011;13604;52.496;13.456;2023-02-12T05:19:56;39.20;;;7.07;;
25758;SDS011;13604;52.496;13.456;2023-02-12T05:22:22;28.83;;;8.98;;
25758;SDS011;13604;52.496;13.456;2023-02-12T05:24:47;33.85;;;9.15;;
25758;SDS011;13604;52.496;13.456;2023-02-12T05:27:12;28.08;;;7.50;;
25758;SDS011;13604;52.496;13.456;2023-02-12T05:29:38;37.38;;;7.50;;
25758;SDS011;13604;52.496;13.456;2023-02-12T05:32:03;42.33;;;8.23;;
25758;SDS011;13604;52.496;13.456;2023-02-12T05:34:29;42.20;;;8.65;;
25758;SDS011;13604;52.496;13.456;2023-02-12T05:36:54;39.17;;;9.35;;
25758;SDS011;13604;52.496;13.456;2023-02-12T05:39:19;31.50;;;7.82;;
25758;SDS011;13604;52.496;13.456;2023-02-12T05:41:45;32.70;;;7.07;;
25758;SDS011;13604;52.496;13.456;2023-02-12T05:44:10;35.03;;;7.57;;
25758;SDS011;13604;52.496;13.456;2023-02-12T05:46:36;48.70;;;8.77;;
25758;SDS011;13604;52.496;13.456;2023-02-12T05:49:02;34.65;;;8.57;;
25758;SDS011;13604;52.496;13.456;2023-02-12T05:51:28;32.60;;;7.95;;
25758;SDS011;13604;52.496;13.456;2023-02-12T05:53:56;33.67;;;8.27;;
25758;SDS011;13604;52.496;13.456;2023-02-12T05:56:25;34.63;;;8.38;;
25758;SDS011;13604;52.496;13.456;2023-02-12T05:58:56;29.58;;;7.70;;
25758;SDS011;13604;52.496;13.456;2023-02-12T06:01:27;30.00;;;7.07;;
25758;SDS011;13604;52.496;13.456;2023-02-12T06:03:54;32.60;;;8.57;;
25758;SDS011;13604;52.496;13.456;2023-02-12T06:06:20;32.00;;;8.40;;
25758;SDS011;13604;52.496;13.456;2023-02-12T06:08:46;30.55;;;7.72;;
25758;SDS011;13604;52.496;13.456;2023-02-12T06:11:13;32.60;;;6.95;;
25758;SDS011;13604;52.496;13.456;2023-02-12T06:13:39;30.05;;;6.65;;
25758;SDS011;13604;52.496;13.456;2023-02-12T06:16:05;33.55;;;7.63;;
25758;SDS011;13604;52.496;13.456;2023-02-12T06:18:31;35.33;;;8.25;;
25758;SDS011;13604;52.496;13.456;2023-02-12T06:21:01;44.10;;;8.10;;
25758;SDS011;13604;52.496;13.456;2023-02-12T06:23:27;40.28;;;8.35;;
25758;SDS011;13604;52.496;13.456;2023-02-12T06:25:54;34.88;;;8.20;;
25758;SDS011;13604;52.496;13.456;2023-02-12T06:28:20;37.42;;;7.10;;
25758;SDS011;13604;52.496;13.456;2023-02-12T06:30:46;29.95;;;7.32;;
25758;SDS011;13604;52.496;13.456;2023-02-12T06:33:11;29.55;;;7.15;;
25758;SDS011;13604;52.496;13.456;2023-02-12T06:35:36;28.40;;;6.85;;
25758;SDS011;13604;52.496;13.456;2023-02-12T06:38:02;27.63;;;7.75;;
25758;SDS011;13604;52.496;13.456;2023-02-12T06:40:28;29.45;;;7.28;;
25758;SDS011;13604;52.496;13.456;2023-02-12T06:42:53;28.08;;;7.05;;
25758;SDS011;13604;52.496;13.456;2023-02-12T06:45:19;34.50;;;8.68;;
25758;SDS011;13604;52.496;13.456;2023-02-12T06:47:44;36.03;;;7.90;;
25758;SDS011;13604;52.496;13.456;2023-02-12T06:50:09;31.30;;;7.28;;
25758;SDS011;13604;52.496;13.456;2023-02-12T06:52:35;32.65;;;8.45;;
25758;SDS011;13604;52.496;13.456;2023-02-12T06:55:00;40.45;;;7.55;;
25758;SDS011;13604;52.496;13.456;2023-02-12T06:57:25;29.40;;;7.05;;
25758;SDS011;13604;52.496;13.456;2023-02-12T06:59:52;33.78;;;8.00;;
25758;SDS011;13604;52.496;13.456;2023-02-12T07:02:17;31.00;;;8.63;;
25758;SDS011;13604;52.496;13.456;2023-02-12T07:04:42;35.47;;;8.13;;
25758;SDS011;13604;52.496;13.456;2023-02-12T07:07:08;30.80;;;7.55;;
25758;SDS011;13604;52.496;13.456;2023-02-12T07:09:33;21.73;;;6.93;;
25758;SDS011;13604;52.496;13.456;2023-02-12T07:11:58;32.55;;;6.70;;
25758;SDS011;13604;52.496;13.456;2023-02-12T07:14:24;28.77;;;5.22;;
25758;SDS011;13604;52.496;13.456;2023-02-12T07:16:50;30.58;;;6.25;;
25758;SDS011;13604;52.496;13.456;2023-02-12T07:19:16;32.88;;;6.38;;
25758;SDS011;13604;52.496;13.456;2023-02-12T07:21:41;29.60;;;6.18;;
25758;SDS011;13604;52.496;13.456;2023-02-12T07:24:08;29.95;;;6.32;;
25758;SDS011;13604;52.496;13.456;2023-02-12T07:26:35;32.15;;;6.93;;
25758;SDS011;13604;52.496;13.456;2023-02-12T07:29:01;25.13;;;6.15;;
25758;SDS011;13604;52.496;13.456;2023-02-12T07:31:26;22.08;;;5.47;;
25758;SDS011;13604;52.496;13.456;2023-02-12T07:33:52;33.90;;;6.93;;
25758;SDS011;13604;52.496;13.456;2023-02-12T07:36:19;20.25;;;5.93;;
25758;SDS011;13604;52.496;13.456;2023-02-12T07:38:44;25.33;;;6.68;;
25758;SDS011;13604;52.496;13.456;2023-02-12T07:41:14;28.27;;;6.05;;
25758;SDS011;13604;52.496;13.456;2023-02-12T07:43:40;25.08;;;6.30;;
25758;SDS011;13604;52.496;13.456;2023-02-12T07:46:11;26.08;;;6.72;;
25758;SDS011;13604;52.496;13.456;2023-02-12T07:48:38;24.90;;;5.93;;
25758;SDS011;13604;52.496;13.456;2023-02-12T07:51:05;24.77;;;6.32;;
25758;SDS011;13604;52.496;13.456;2023-02-12T07:53:32;22.77;;;6.13;;
25758;SDS011;13604;52.496;13.456;2023-02-12T07:56:31;26.50;;;6.28;;
25758;SDS011;13604;52.496;13.456;2023-02-12T07:58:54;23.30;;;6.40;;
25758;SDS011;13604;52.496;13.456;2023-02-12T08:01:24;20.90;;;5.53;;
25758;SDS011;13604;52.496;13.456;2023-02-12T08:03:52;22.42;;;6.70;;
25758;SDS011;13604;52.496;13.456;2023-02-12T08:06:22;18.92;;;5.97;;
25758;SDS011;13604;52.496;13.456;2023-02-12T08:08:49;23.17;;;5.97;;
25758;SDS011;13604;52.496;13.456;2023-02-12T08:11:15;27.67;;;5.43;;
25758;SDS011;13604;52.496;13.456;2023-02-12T08:13:42;25.10;;;6.03;;
25758;SDS011;13604;52.496;13.456;2023-02-12T08:16:09;23.80;;;6.85;;
25758;SDS011;13604;52.496;13.456;2023-02-12T08:18:37;25.58;;;6.30;;
25758;SDS011;13604;52.496;13.456;2023-02-12T08:21:09;25.55;;;6.85;;
25758;SDS011;13604;52.496;13.456;2023-02-12T08:23:42;26.30;;;5.65;;
25758;SDS011;13604;52.496;13.456;2023-02-12T08:28:35;21.85;;;5.95;;
25758;SDS011;13604;52.496;13.456;2023-02-12T08:31:02;31.25;;;6.43;;
25758;SDS011;13604;52.496;13.456;2023-02-12T08:33:29;22.02;;;5.68;;
25758;SDS011;13604;52.496;13.456;2023-02-12T08:36:01;23.85;;;5.97;;
25758;SDS011;13604;52.496;13.456;2023-02-12T08:38:38;20.93;;;5.77;;
25758;SDS011;13604;52.496;13.456;2023-02-12T08:41:06;24.58;;;6.47;;
25758;SDS011;13604;52.496;13.456;2023-02-12T08:43:33;21.10;;;6.47;;
25758;SDS011;13604;52.496;13.456;2023-02-12T08:46:06;24.48;;;6.38;;
25758;SDS011;13604;52.496;13.456;2023-02-12T08:48:39;29.75;;;7.32;;
25758;SDS011;13604;52.496;13.456;2023-02-12T08:51:07;26.20;;;6.20;;
25758;SDS011;13604;52.496;13.456;2023-02-12T08:53:34;30.55;;;6.03;;
25758;SDS011;13604;52.496;13.456;2023-02-12T08:56:00;21.13;;;6.60;;
25758;SDS011;13604;52.496;13.456;2023-02-12T08:58:25;32.15;;;6.75;;
25758;SDS011;13604;52.496;13.456;2023-02-12T09:00:50;28.25;;;6.22;;
25758;SDS011;13604;52.496;13.456;2023-02-12T09:03:15;22.80;;;5.50;;
25758;SDS011;13604;52.496;13.456;2023-02-12T09:05:41;30.48;;;5.38;;
25758;SDS011;13604;52.496;13.456;2023-02-12T09:08:06;31.25;;;6.05;;
25758;SDS011;13604;52.496;13.456;2023-02-12T09:10:32;20.27;;;5.68;;
25758;SDS011;13604;52.496;13.456;2023-02-12T09:12:57;25.00;;;5.35;;
25758;SDS011;13604;52.496;13.456;2023-02-12T09:15:23;26.60;;;6.28;;
25758;SDS011;13604;52.496;13.456;2023-02-12T09:17:48;21.42;;;5.40;;
25758;SDS011;13604;52.496;13.456;2023-02-12T09:20:13;18.83;;;6.10;;
25758;SDS011;13604;52.496;13.456;2023-02-12T09:22:39;30.05;;;7.38;;
25758;SDS011;13604;52.496;13.456;2023-02-12T09:25:04;21.35;;;5.40;;
25758;SDS011;13604;52.496;13.456;2023-02-12T09:27:30;25.20;;;6.00;;
25758;SDS011;13604;52.496;13.456;2023-02-12T09:29:55;23.00;;;5.90;;
25758;SDS011;13604;52.496;13.456;2023-02-12T09:32:21;24.60;;;6.57;;
25758;SDS011;13604;52.496;13.456;2023-02-12T09:34:46;22.80;;;6.63;;
25758;SDS011;13604;52.496;13.456;2023-02-12T09:37:11;23.10;;;6.50;;
25758;SDS011;13604;52.496;13.456;2023-02-12T09:39:37;24.83;;;5.95;;
25758;SDS011;13604;52.496;13.456;2023-02-12T09:44:49;13.37;;;4.23;;
25758;SDS011;13604;52.496;13.456;2023-02-12T09:47:46;23.50;;;5.32;;
25758;SDS011;13604;52.496;13.456;2023-02-12T09:50:26;15.52;;;5.43;;
25758;SDS011;13604;52.496;13.456;2023-02-12T09:52:57;26.52;;;5.97;;
25758;SDS011;13604;52.496;13.456;2023-02-12T09:55:28;22.50;;;6.13;;
25758;SDS011;13604;52.496;13.456;2023-02-12T09:57:55;18.02;;;5.18;;
25758;SDS011;13604;52.496;13.456;2023-02-12T10:00:25;20.52;;;5.07;;
25758;SDS011;13604;52.496;13.456;2023-02-12T10:02:53;23.02;;;5.53;;
25758;SDS011;13604;52.496;13.456;2023-02-12T10:05:23;28.00;;;6.82;;
25758;SDS011;13604;52.496;13.456;2023-02-12T10:10:48;25.52;;;6.57;;
25758;SDS011;13604;52.496;13.456;2023-02-12T10:13:40;26.27;;;5.93;;
25758;SDS011;13604;52.496;13.456;2023-02-12T10:19:20;21.75;;;7.90;;
25758;SDS011;13604;52.496;13.456;2023-02-12T10:21:53;19.33;;;6.75;;
25758;SDS011;13604;52.496;13.456;2023-02-12T10:24:53;20.25;;;6.55;;
25758;SDS011;13604;52.496;13.456;2023-02-12T10:27:24;23.00;;;6.73;;
25758;SDS011;13604;52.496;13.456;2023-02-12T10:30:00;30.25;;;7.13;;
25758;SDS011;13604;52.496;13.456;2023-02-12T10:32:37;20.85;;;7.50;;
25758;SDS011;13604;52.496;13.456;2023-02-12T10:35:11;23.70;;;7.80;;
25758;SDS011;13604;52.496;13.456;2023-02-12T10:37:42;23.50;;;8.10;;
25758;SDS011;13604;52.496;13.456;2023-02-12T10:40:19;20.90;;;8.70;;
25758;SDS011;13604;52.496;13.456;2023-02-12T10:42:51;20.27;;;7.82;;
25758;SDS011;13604;52.496;13.456;2023-02-12T10:45:18;28.88;;;8.95;;
25758;SDS011;13604;52.496;13.456;2023-02-12T10:47:51;20.27;;;7.88;;
25758;SDS011;13604;52.496;13.456;2023-02-12T10:53:38;26.50;;;7.82;;
25758;SDS011;13604;52.496;13.456;2023-02-12T10:58:50;24.25;;;8.20;;
25758;SDS011;13604;52.496;13.456;2023-02-12T11:01:27;20.77;;;7.55;;
25758;SDS011;13604;52.496;13.456;2023-02-12T11:03:55;24.98;;;8.68;;
25758;SDS011;13604;52.496;13.456;2023-02-12T11:06:25;30.52;;;9.02;;
25758;SDS011;13604;52.496;13.456;2023-02-12T11:08:52;19.42;;;9.57;;
25758;SDS011;13604;52.496;13.456;2023-02-12T11:11:30;19.10;;;7.82;;
25758;SDS011;13604;52.496;13.456;2023-02-12T11:14:02;24.57;;;8.27;;
25758;SDS011;13604;52.496;13.456;2023-02-12T11:16:44;22.10;;;8.05;;
25758;SDS011;13604;52.496;13.456;2023-02-12T11:19:29;23.10;;;8.68;;
25758;SDS011;13604;52.496;13.456;2023-02-12T11:22:12;24.55;;;8.60;;
25758;SDS011;13604;52.496;13.456;2023-02-12T11:24:43;18.92;;;8.90;;
25758;SDS011;13604;52.496;13.456;2023-02-12T11:29:40;30.15;;;10.77;;
25758;SDS011;13604;52.496;13.456;2023-02-12T11:32:17;23.92;;;9.75;;
25758;SDS011;13604;52.496;13.456;2023-02-12T11:34:46;23.60;;;10.68;;
25758;SDS011;13604;52.496;13.456;2023-02-12T11:37:29;21.55;;;10.07;;
25758;SDS011;13604;52.496;13.456;2023-02-12T11:40:00;27.88;;;11.27;;
25758;SDS011;13604;52.496;13.456;2023-02-12T11:42:26;24.35;;;12.05;;
25758;SDS011;13604;52.496;13.456;2023-02-12T11:44:59;26.67;;;10.25;;
25758;SDS011;13604;52.496;13.456;2023-02-12T11:47:25;19.73;;;10.05;;
25758;SDS011;13604;52.496;13.456;2023-02-12T11:50:00;20.85;;;9.77;;
25758;SDS011;13604;52.496;13.456;2023-02-12T11:52:46;21.20;;;8.45;;
25758;SDS011;13604;52.496;13.456;2023-02-12T11:55:19;22.23;;;8.27;;
25758;SDS011;13604;52.496;13.456;2023-02-12T11:57:50;21.15;;;9.55;;
25758;SDS011;13604;52.496;13.456;2023-02-12T12:00:24;15.68;;;7.75;;
25758;SDS011;13604;52.496;13.456;2023-02-12T12:05:51;19.70;;;8.38;;
25758;SDS011;13604;52.496;13.456;2023-02-12T12:11:08;21.23;;;9.80;;
25758;SDS011;13604;52.496;13.456;2023-02-12T12:13:40;23.08;;;9.88;;
25758;SDS011;13604;52.496;13.456;2023-02-12T12:16:21;26.02;;;10.25;;
25758;SDS011;13604;52.496;13.456;2023-02-12T12:19:12;21.55;;;10.23;;
25758;SDS011;13604;52.496;13.456;2023-02-12T12:22:25;24.35;;;9.95;;
25758;SDS011;13604;52.496;13.456;2023-02-12T12:25:14;19.05;;;9.48;;
25758;SDS011;13604;52.496;13.456;2023-02-12T12:33:04;20.90;;;9.93;;
25758;SDS011;13604;52.496;13.456;2023-02-12T12:36:05;20.77;;;10.90;;
25758;SDS011;13604;52.496;13.456;2023-02-12T12:38:45;30.02;;;11.80;;
25758;SDS011;13604;52.496;13.456;2023-02-12T12:41:46;20.90;;;9.30;;
25758;SDS011;13604;52.496;13.456;2023-02-12T12:52:59;21.52;;;9.55;;
25758;SDS011;13604;52.496;13.456;2023-02-12T12:58:19;17.10;;;8.25;;
25758;SDS011;13604;52.496;13.456;2023-02-12T13:01:01;24.05;;;8.82;;
25758;SDS011;13604;52.496;13.456;2023-02-12T13:03:57;17.92;;;8.77;;
25758;SDS011;13604;52.496;13.456;2023-02-12T13:06:28;14.80;;;7.00;;
25758;SDS011;13604;52.496;13.456;2023-02-12T13:15:08;15.35;;;7.63;;
25758;SDS011;13604;52.496;13.456;2023-02-12T13:17:43;12.77;;;7.00;;
25758;SDS011;13604;52.496;13.456;2023-02-12T13:23:08;13.43;;;6.90;;
25758;SDS011;13604;52.496;13.456;2023-02-12T13:28:14;12.07;;;6.50;;
25758;SDS011;13604;52.496;13.456;2023-02-12T13:30:51;15.40;;;7.22;;
25758;SDS011;13604;52.496;13.456;2023-02-12T13:33:19;15.80;;;7.38;;
25758;SDS011;13604;52.496;13.456;2023-02-12T13:35:48;15.02;;;7.15;;
25758;SDS011;13604;52.496;13.456;2023-02-12T13:38:19;14.60;;;6.95;;
25758;SDS011;13604;52.496;13.456;2023-02-12T13:40:51;14.55;;;6.90;;
25758;SDS011;13604;52.496;13.456;2023-02-12T13:43:41;13.80;;;6.65;;
25758;SDS011;13604;52.496;13.456;2023-02-12T13:46:19;11.02;;;5.78;;
25758;SDS011;13604;52.496;13.456;2023-02-12T13:48:59;10.18;;;5.15;;
25758;SDS011;13604;52.496;13.456;2023-02-12T13:51:44;8.88;;;4.93;;
25758;SDS011;13604;52.496;13.456;2023-02-12T13:57:00;6.90;;;4.60;;
25758;SDS011;13604;52.496;13.456;2023-02-12T14:01:56;9.45;;;5.28;;
25758;SDS011;13604;52.496;13.456;2023-02-12T14:07:10;8.63;;;4.53;;
25758;SDS011;13604;52.496;13.456;2023-02-12T14:09:42;8.60;;;4.40;;
25758;SDS011;13604;52.496;13.456;2023-02-12T14:12:11;8.80;;;4.63;;
25758;SDS011;13604;52.496;13.456;2023-02-12T14:14:42;7.85;;;4.50;;
25758;SDS011;13604;52.496;13.456;2023-02-12T14:20:05;7.57;;;4.43;;
25758;SDS011;13604;52.496;13.456;2023-02-12T14:35:29;7.03;;;4.18;;
25758;SDS011;13604;52.496;13.456;2023-02-12T14:38:01;10.43;;;4.35;;
25758;SDS011;13604;52.496;13.456;2023-02-12T14:40:47;8.50;;;4.40;;
25758;SDS011;13604;52.496;13.456;2023-02-12T14:51:18;8.40;;;5.15;;
25758;SDS011;13604;52.496;13.456;2023-02-12T14:53:46;8.60;;;5.22;;
25758;SDS011;13604;52.496;13.456;2023-02-12T14:56:17;11.88;;;5.10;;
25758;SDS011;13604;52.496;13.456;2023-02-12T14:58:45;10.32;;;5.47;;
25758;SDS011;13604;52.496;13.456;2023-02-12T15:01:11;9.93;;;5.68;;
25758;SDS011;13604;52.496;13.456;2023-02-12T15:06:03;11.33;;;5.67;;
25758;SDS011;13604;52.496;13.456;2023-02-12T15:14:06;12.00;;;5.40;;
25758;SDS011;13604;52.496;13.456;2023-02-12T15:16:44;14.40;;;5.40;;
25758;SDS011;13604;52.496;13.456;2023-02-12T15:19:27;7.85;;;3.55;;
25758;SDS011;13604;52.496;13.456;2023-02-12T15:22:01;11.73;;;5.47;;
25758;SDS011;13604;52.496;13.456;2023-02-12T15:24:27;11.27;;;5.50;;
25758;SDS011;13604;52.496;13.456;2023-02-12T15:26:53;10.63;;;5.93;;
25758;SDS011;13604;52.496;13.456;2023-02-12T15:29:27;10.40;;;5.88;;
25758;SDS011;13604;52.496;13.456;2023-02-12T15:32:00;14.50;;;5.63;;
25758;SDS011;13604;52.496;13.456;2023-02-12T15:34:30;14.57;;;6.20;;
25758;SDS011;13604;52.496;13.456;2023-02-12T15:36:58;13.20;;;6.22;;
25758;SDS011;13604;52.496;13.456;2023-02-12T15:39:26;13.70;;;6.15;;
25758;SDS011;13604;52.496;13.456;2023-02-12T15:42:01;11.93;;;6.53;;
25758;SDS011;13604;52.496;13.456;2023-02-12T15:44:30;13.50;;;6.47;;
25758;SDS011;13604;52.496;13.456;2023-02-12T15:49:34;12.43;;;6.82;;
25758;SDS011;13604;52.496;13.456;2023-02-12T15:52:23;15.63;;;6.90;;
25758;SDS011;13604;52.496;13.456;2023-02-12T15:54:51;20.50;;;7.65;;
25758;SDS011;13604;52.496;13.456;2023-02-12T15:57:20;14.15;;;7.80;;
25758;SDS011;13604;52.496;13.456;2023-02-12T15:59:48;19.05;;;8.40;;
25758;SDS011;13604;52.496;13.456;2023-02-12T16:02:20;14.15;;;7.72;;
25758;SDS011;13604;52.496;13.456;2023-02-12T16:04:51;21.25;;;8.32;;
25758;SDS011;13604;52.496;13.456;2023-02-12T16:07:17;14.68;;;7.22;;
25758;SDS011;13604;52.496;13.456;2023-02-12T16:09:43;17.73;;;8.70;;
25758;SDS011;13604;52.496;13.456;2023-02-12T16:12:12;18.38;;;7.63;;
25758;SDS011;13604;52.496;13.456;2023-02-12T16:14:49;17.25;;;7.55;;
25758;SDS011;13604;52.496;13.456;2023-02-12T16:20:31;17.75;;;7.38;;
25758;SDS011;13604;52.496;13.456;2023-02-12T16:22:42;14.13;;;6.25;;
25758;SDS011;13604;52.496;13.456;2023-02-12T16:25:14;17.00;;;6.38;;
25758;SDS011;13604;52.496;13.456;2023-02-12T16:30:32;12.88;;;6.60;;
25758;SDS011;13604;52.496;13.456;2023-02-12T16:36:14;14.07;;;6.30;;
25758;SDS011;13604;52.496;13.456;2023-02-12T16:43:47;13.48;;;5.35;;
25758;SDS011;13604;52.496;13.456;2023-02-12T16:46:15;13.00;;;4.95;;
25758;SDS011;13604;52.496;13.456;2023-02-12T16:48:43;8.65;;;4.50;;
25758;SDS011;13604;52.496;13.456;2023-02-12T16:53:49;9.55;;;4.72;;
25758;SDS011;13604;52.496;13.456;2023-02-12T16:56:18;12.90;;;5.03;;
25758;SDS011;13604;52.496;13.456;2023-02-12T16:58:52;9.13;;;4.65;;
25758;SDS011;13604;52.496;13.456;2023-02-12T17:01:21;11.73;;;4.90;;